createdAt,value
2018-09-02T00:00:24.185Z,20.10
2018-09-02T00:02:52.649Z,18.93
2018-09-02T00:05:20.933Z,21.33
2018-09-02T00:07:49.267Z,21.77
2018-09-02T00:10:17.715Z,20.63
2018-09-02T00:12:46.175Z,19.77
2018-09-02T00:15:14.626Z,19.20
2018-09-02T00:17:42.991Z,19.63
2018-09-02T00:20:11.324Z,19.13
2018-09-02T00:22:39.853Z,20.13
2018-09-02T00:25:08.175Z,22.07
2018-09-02T00:27:36.534Z,21.27
2018-09-02T00:30:05.198Z,20.53
2018-09-02T00:32:33.549Z,20.53
2018-09-02T00:35:01.969Z,21.07
2018-09-02T00:37:30.311Z,20.30
2018-09-02T00:39:58.618Z,19.93
2018-09-02T00:42:27.004Z,20.33
2018-09-02T00:44:55.335Z,20.00
2018-09-02T00:47:23.708Z,18.47
2018-09-02T00:49:52.427Z,21.57
2018-09-02T00:52:20.783Z,18.20
2018-09-02T00:54:49.281Z,19.53
2018-09-02T00:57:17.679Z,18.70
2018-09-02T00:59:45.978Z,18.50
2018-09-02T01:02:14.315Z,19.47
2018-09-02T01:04:42.680Z,19.57
2018-09-02T01:07:11.089Z,19.00
2018-09-02T01:09:39.381Z,18.07
2018-09-02T01:12:07.833Z,18.67
2018-09-02T01:14:36.248Z,20.77
2018-09-02T01:17:04.993Z,18.43
2018-09-02T01:19:33.351Z,19.07
2018-09-02T01:22:01.675Z,17.63
2018-09-02T01:24:30.029Z,20.10
2018-09-02T01:26:58.492Z,19.47
2018-09-02T01:29:26.849Z,17.80
2018-09-02T01:31:55.153Z,17.20
2018-09-02T01:34:23.547Z,18.00
2018-09-02T01:36:51.934Z,17.40
2018-09-02T01:39:20.231Z,18.47
2018-09-02T01:41:48.561Z,16.73
2018-09-02T01:44:16.941Z,16.77
2018-09-02T01:46:45.258Z,16.93
2018-09-02T01:49:13.555Z,18.93
2018-09-02T01:51:41.988Z,16.77
2018-09-02T01:54:10.415Z,16.00
2018-09-02T01:56:38.736Z,14.80
2018-09-02T01:59:07.191Z,16.73
2018-09-02T02:01:35.893Z,15.03
2018-09-02T02:04:04.388Z,15.83
2018-09-02T02:06:32.722Z,15.17
2018-09-02T02:09:01.124Z,13.87
2018-09-02T02:11:29.462Z,15.40
2018-09-02T02:13:57.877Z,17.10
2018-09-02T02:16:26.202Z,15.90
2018-09-02T02:18:54.619Z,15.73
2018-09-02T02:21:22.925Z,15.40
2018-09-02T02:23:51.360Z,16.87
2018-09-02T02:26:19.673Z,16.20
2018-09-02T02:28:48.330Z,17.20
2018-09-02T02:31:16.697Z,16.20
2018-09-02T02:33:45.097Z,15.73
2018-09-02T02:36:13.467Z,16.87
2018-09-02T02:38:41.839Z,19.00
2018-09-02T02:41:10.281Z,18.53
2018-09-02T02:43:38.747Z,17.30
2018-09-02T02:46:07.267Z,18.47
2018-09-02T02:48:35.671Z,17.57
2018-09-02T02:51:04.049Z,17.80
2018-09-02T02:53:32.401Z,18.27
2018-09-02T02:56:00.809Z,17.57
2018-09-02T02:58:29.189Z,17.23
2018-09-02T03:00:57.527Z,17.80
2018-09-02T03:03:25.922Z,18.37
2018-09-02T03:05:54.354Z,16.33
2018-09-02T03:08:22.762Z,19.63
2018-09-02T03:10:51.231Z,16.73
2018-09-02T03:13:19.633Z,18.47
2018-09-02T03:15:48.051Z,17.03
2018-09-02T03:18:16.387Z,19.50
2018-09-02T03:20:44.802Z,18.67
2018-09-02T03:23:13.229Z,19.27
2018-09-02T03:25:41.783Z,18.13
2018-09-02T03:28:10.217Z,17.93
2018-09-02T03:30:38.613Z,19.30
2018-09-02T03:33:07.040Z,18.57
2018-09-02T03:35:35.395Z,18.43
2018-09-02T03:38:03.791Z,18.97
2018-09-02T03:40:32.153Z,19.33
2018-09-02T03:43:00.553Z,18.40
2018-09-02T03:45:28.948Z,19.00
2018-09-02T03:47:57.354Z,19.80
2018-09-02T03:50:25.791Z,18.07
2018-09-02T03:52:54.169Z,19.60
2018-09-02T03:55:22.543Z,17.70
2018-09-02T03:57:50.909Z,18.40
2018-09-02T04:00:19.381Z,18.17
2018-09-02T04:02:47.750Z,16.93
2018-09-02T04:05:16.109Z,17.30
2018-09-02T04:07:44.504Z,16.67
2018-09-02T04:10:12.905Z,17.90
2018-09-02T04:12:41.262Z,15.80
2018-09-02T04:15:09.683Z,17.90
2018-09-02T04:17:38.130Z,15.87
2018-09-02T04:20:07.341Z,16.80
2018-09-02T04:22:35.719Z,14.17
2018-09-02T04:25:04.187Z,14.37
2018-09-02T04:27:32.594Z,9.43
2018-09-02T04:30:00.941Z,11.10
